地図

経路データ

SID SEASON NUMBER BASIN SUBBASIN NAME ISO_TIME NATURE LAT LON WMO_WIND WMO_PRES WMO_AGENCY TRACK_TYPE DIST2LAND LANDFALL IFLAG USA_AGENCY USA_ATCF_ID USA_LAT USA_LON USA_RECORD USA_STATUS USA_WIND USA_PRES USA_SSHS USA_R34_NE USA_R34_SE USA_R34_SW USA_R34_NW USA_R50_NE USA_R50_SE USA_R50_SW USA_R50_NW USA_R64_NE USA_R64_SE USA_R64_SW USA_R64_NW USA_POCI USA_ROCI USA_RMW USA_EYE TOKYO_LAT TOKYO_LON TOKYO_GRADE TOKYO_WIND TOKYO_PRES TOKYO_R50_DIR TOKYO_R50_LONG TOKYO_R50_SHORT TOKYO_R30_DIR TOKYO_R30_LONG TOKYO_R30_SHORT TOKYO_LAND CMA_LAT CMA_LON CMA_CAT CMA_WIND CMA_PRES HKO_LAT HKO_LON HKO_CAT HKO_WIND HKO_PRES NEWDELHI_LAT NEWDELHI_LON NEWDELHI_GRADE NEWDELHI_WIND NEWDELHI_PRES NEWDELHI_CI NEWDELHI_DP NEWDELHI_POCI REUNION_LAT REUNION_LON REUNION_TYPE REUNION_WIND REUNION_PRES REUNION_TNUM REUNION_CI REUNION_RMW REUNION_R34_NE REUNION_R34_SE REUNION_R34_SW REUNION_R34_NW REUNION_R50_NE REUNION_R50_SE REUNION_R50_SW REUNION_R50_NW REUNION_R64_NE REUNION_R64_SE REUNION_R64_SW REUNION_R64_NW BOM_LAT BOM_LON BOM_TYPE BOM_WIND BOM_PRES BOM_TNUM BOM_CI BOM_RMW BOM_R34_NE BOM_R34_SE BOM_R34_SW BOM_R34_NW BOM_R50_NE BOM_R50_SE BOM_R50_SW BOM_R50_NW BOM_R64_NE BOM_R64_SE BOM_R64_SW BOM_R64_NW BOM_ROCI BOM_POCI BOM_EYE BOM_POS_METHOD BOM_PRES_METHOD NADI_LAT NADI_LON NADI_CAT NADI_WIND NADI_PRES WELLINGTON_LAT WELLINGTON_LON WELLINGTON_WIND WELLINGTON_PRES DS824_LAT DS824_LON DS824_STAGE DS824_WIND DS824_PRES TD9636_LAT TD9636_LON TD9636_STAGE TD9636_WIND TD9636_PRES TD9635_LAT TD9635_LON TD9635_WIND TD9635_PRES TD9635_ROCI NEUMANN_LAT NEUMANN_LON NEUMANN_CLASS NEUMANN_WIND NEUMANN_PRES MLC_LAT MLC_LON MLC_CLASS MLC_WIND MLC_PRES USA_GUST BOM_GUST BOM_GUST_PER REUNION_GUST REUNION_GUST_PER USA_SEAHGT USA_SEARAD_NE USA_SEARAD_SE USA_SEARAD_SW USA_SEARAD_NW STORM_SPEED STORM_DIR
1964197N15248 1964 45 EP MM ODESSA 1964-07-15 00:00:00 TS 15.1000 -112.000 75 hurdat_epa main 877 877 O________OO___ hurdat_epa EP021964 15.1000 -112.000 HU 75 1 15.1000 -112.000 TC 75 15.1000 -112.000 4 8 277
1964197N15248 1964 45 EP MM ODESSA 1964-07-15 03:00:00 TS 15.1483 -112.402 main 908 897 P________PP___ EP021964 15.1552 -112.402 HU 75 1 15.1552 -112.402 TC 75 15.1209 -112.400 4 8 277
1964197N15248 1964 45 EP MM ODESSA 1964-07-15 06:00:00 TS 15.1906 -112.800 75 hurdat_epa main 910 910 O________OP___ hurdat_epa EP021964 15.2000 -112.800 HU 75 1 15.2000 -112.800 TC 75 15.1532 -112.800 4 8 276
1964197N15248 1964 45 EP MM ODESSA 1964-07-15 09:00:00 TS 15.2297 -113.194 main 924 918 P________PP___ EP021964 15.2349 -113.193 HU 75 1 15.2349 -113.193 TC 75 15.2089 -113.200 4 8 278
1964197N15248 1964 45 EP MM ODESSA 1964-07-15 12:00:00 TS 15.3000 -113.600 75 hurdat_epa main 930 928 O________OO___ hurdat_epa EP021964 15.3000 -113.600 HU 75 1 15.3000 -113.600 TC 75 15.3000 -113.600 4 8 284
1964197N15248 1964 45 EP MM ODESSA 1964-07-15 15:00:00 TS 15.4346 -114.040 main 938 932 P________PP___ EP021964 15.4350 -114.050 HU 75 1 15.4350 -114.050 TC 75 15.4330 -114.001 4 9 289
1964197N15248 1964 45 EP MM ODESSA 1964-07-15 18:00:00 TS 15.5984 -114.482 75 hurdat_epa main 943 938 O________OP___ hurdat_epa EP021964 15.6000 -114.500 HU 75 1 15.6000 -114.500 TC 75 15.5919 -114.412 4 9 292
1964197N15248 1964 45 EP MM ODESSA 1964-07-15 21:00:00 TS 15.7628 -114.882 main 945 945 P________PP___ EP021964 15.7648 -114.893 HU 75 1 15.7648 -114.893 TC 75 15.7548 -114.842 4 8 291
1964197N15248 1964 45 EP MM ODESSA 1964-07-16 00:00:00 TS 15.9000 -115.300 75 hurdat_epa main 959 959 O________OO___ hurdat_epa EP021964 15.9000 -115.300 HU 75 1 15.9000 -115.300 TC 75 15.9000 -115.300 4 9 283
1964197N15248 1964 45 EP MM ODESSA 1964-07-16 03:00:00 TS 15.9628 -115.780 main 982 982 P________PP___ EP021964 15.9574 -115.778 HU 75 1 15.9574 -115.778 TC 75 15.9842 -115.789 4 10 277
1964197N15248 1964 45 EP MM ODESSA 1964-07-16 06:00:00 TS 16.0099 -116.301 75 hurdat_epa main 1015 1015 O________OP___ hurdat_epa EP021964 16.0000 -116.300 HU 75 1 16.0000 -116.300 TC 75 16.0497 -116.306 4 10 277
1964197N15248 1964 45 EP MM ODESSA 1964-07-16 09:00:00 TS 16.0910 -116.843 main 1041 1041 P________PP___ EP021964 16.0849 -116.843 HU 75 1 16.0849 -116.843 TC 75 16.1153 -116.845 4 11 280
1964197N15248 1964 45 EP MM ODESSA 1964-07-16 12:00:00 TS 16.2000 -117.400 75 hurdat_epa main 1077 1077 O________OO___ hurdat_epa EP021964 16.2000 -117.400 HU 75 1 16.2000 -117.400 TC 75 16.2000 -117.400 4 11 283
1964197N15248 1964 45 EP MM ODESSA 1964-07-16 15:00:00 TS 16.3394 -117.945 main 1108 1108 P________PP___ EP021964 16.3423 -117.943 HU 75 1 16.3423 -117.943 TC 75 16.3280 -117.953 4 11 286
1964197N15248 1964 45 EP MM ODESSA 1964-07-16 18:00:00 TS 16.4954 -118.504 75 hurdat_epa main 1132 1132 O________OP___ hurdat_epa EP021964 16.5000 -118.500 HU 75 1 16.5000 -118.500 TC 75 16.4769 -118.520 4 11 286
1964197N15248 1964 45 EP MM ODESSA 1964-07-16 21:00:00 TS 16.6473 -119.089 main 1161 1152 P________PP___ EP021964 16.6498 -119.085 HU 75 1 16.6498 -119.085 TC 75 16.6373 -119.103 4 12 285
1964197N15248 1964 45 EP MM ODESSA 1964-07-17 00:00:00 TS 16.8000 -119.700 75 hurdat_epa main 1184 1184 O________OO___ hurdat_epa EP021964 16.8000 -119.700 HU 75 1 16.8000 -119.700 TC 75 16.8000 -119.700 4 12 284
1964197N15248 1964 45 EP MM ODESSA 1964-07-17 03:00:00 TS 16.9450 -120.343 main 1218 1217 P________PP___ EP021964 16.9499 -120.350 HU 75 1 16.9499 -120.350 TC 75 16.9254 -120.315 4 13 283
1964197N15248 1964 45 EP MM ODESSA 1964-07-17 06:00:00 TS 17.0909 -120.989 75 hurdat_epa main 1254 1254 O________OP___ hurdat_epa EP021964 17.1000 -121.000 HU 75 1 17.1000 -121.000 TC 75 17.0547 -120.944 4 12 283
1964197N15248 1964 45 EP MM ODESSA 1964-07-17 09:00:00 TS 17.2291 -121.601 main 1292 1292 P________PP___ EP021964 17.2348 -121.608 HU 75 1 17.2348 -121.608 TC 75 17.2066 -121.575 4 12 285
1964197N15248 1964 45 EP MM ODESSA 1964-07-17 12:00:00 TS 17.4000 -122.200 75 hurdat_epa main 1325 1325 O________OO___ hurdat_epa EP021964 17.4000 -122.200 HU 75 1 17.4000 -122.200 TC 75 17.4000 -122.200 4 12 289
1964197N15248 1964 45 EP MM ODESSA 1964-07-17 15:00:00 TS 17.6256 -122.806 main 1361 1361 P________PP___ EP021964 17.6198 -122.800 HU 75 1 17.6198 -122.800 TC 75 17.6486 -122.831 4 13 294
1964197N15248 1964 45 EP MM ODESSA 1964-07-17 18:00:00 TS 17.9080 -123.410 75 hurdat_epa main 1389 1387 O________OP___ hurdat_epa EP021964 17.9000 -123.400 HU 75 1 17.9000 -123.400 TC 75 17.9399 -123.452 4 13 298
1964197N15248 1964 45 EP MM ODESSA 1964-07-17 21:00:00 TS 18.2402 -124.027 main 1404 1400 P________PP___ EP021964 18.2350 -124.022 HU 75 1 18.2350 -124.022 TC 75 18.2612 -124.047 4 13 301
1964197N15248 1964 45 EP MM ODESSA 1964-07-18 00:00:00 TS 18.6000 -124.600 75 hurdat_epa main 1411 1408 O________OO___ hurdat_epa EP021964 18.6000 -124.600 HU 75 1 18.6000 -124.600 TC 75 18.6000 -124.600 4 12 306
1964197N15248 1964 45 EP MM ODESSA 1964-07-18 03:00:00 TS 18.9515 -125.073 main 1415 1414 P________PP___ EP021964 18.9497 -125.073 HU 75 1 18.9497 -125.073 TC 75 18.9587 -125.073 4 11 310
1964197N15248 1964 45 EP MM ODESSA 1964-07-18 06:00:00 TS 19.3056 -125.502 75 hurdat_epa main 1422 1422 O________OP___ hurdat_epa EP021964 19.3000 -125.500 HU 75 1 19.3000 -125.500 TC 75 19.3282 -125.508 4 11 311
1964197N15248 1964 45 EP MM ODESSA 1964-07-18 09:00:00 TS 19.6686 -125.936 main 1423 1423 P________PP___ EP021964 19.6648 -125.935 HU 75 1 19.6648 -125.935 TC 75 19.6837 -125.939 4 11 309
1964197N15248 1964 45 EP MM ODESSA 1964-07-18 12:00:00 TS 20.0000 -126.400 75 hurdat_epa main 1441 1441 O________OO___ hurdat_epa EP021964 20.0000 -126.400 HU 75 1 20.0000 -126.400 TC 75 20.0000 -126.400 4 11 303
1964197N15248 1964 45 EP MM ODESSA 1964-07-18 15:00:00 TS 20.2798 -126.930 main 1462 1462 P________PP___ EP021964 20.2799 -126.928 HU 75 1 20.2799 -126.928 TC 75 20.2796 -126.939 4 12 296
1964197N15248 1964 45 EP MM ODESSA 1964-07-18 18:00:00 TS 20.5025 -127.502 75 hurdat_epa main 1500 1500 O________OP___ hurdat_epa EP021964 20.5000 -127.500 HU 75 1 20.5000 -127.500 TC 75 20.5124 -127.512 4 12 290
1964197N15248 1964 45 EP MM ODESSA 1964-07-18 21:00:00 TS 20.6817 -128.101 main 1539 1539 P________PP___ EP021964 20.6799 -128.100 HU 75 1 20.6799 -128.100 TC 75 20.6889 -128.104 4 12 285
1964197N15248 1964 45 EP MM ODESSA 1964-07-19 00:00:00 TS 20.8000 -128.700 75 hurdat_epa main 1586 1586 O________OO___ hurdat_epa EP021964 20.8000 -128.700 HU 75 1 20.8000 -128.700 TC 75 20.8000 -128.700 4 11 280
1964197N15248 1964 45 EP MM ODESSA 1964-07-19 03:00:00 TS 20.8780 -129.257 main 1633 1633 P________PP___ EP021964 20.8872 -129.250 HU 75 1 20.8872 -129.250 TC 75 20.8412 -129.287 4 10 275
1964197N15248 1964 45 EP MM ODESSA 1964-07-19 06:00:00 TS 20.8852 -129.813 75 hurdat_epa main 1678 1678 O________OP___ hurdat_epa EP021964 20.9000 -129.800 HU 75 1 20.9000 -129.800 TC 75 20.8261 -129.864 4 11 267
1964197N15248 1964 45 EP MM ODESSA 1964-07-19 09:00:00 TS 20.8150 -130.397 main 1738 1738 P________PP___ EP021964 20.8255 -130.388 HU 75 1 20.8255 -130.388 TC 75 20.7730 -130.434 4 11 261
1964197N15248 1964 45 EP MM ODESSA 1964-07-19 12:00:00 TS 20.7000 -131.000 75 hurdat_epa main 1798 O________OO___ hurdat_epa EP021964 20.7000 -131.000 HU 75 1 20.7000 -131.000 TC 75 20.7000 -131.000 4 12 258

IBTrACS Databaseについて

本データベースは、米国NOAAが公開する1842年以降の世界の熱帯低気圧のベストトラックデータアーカイブInternational Best Track Archive for Climate Stewardship (IBTrACS)を、ウェブで閲覧しやすい形式に変換したものです。

最終更新日:2021-11-26